sensor_id;sensor_type;location;lat;lon;timestamp;pressure;altitude;pressure_sealevel;temperature;humidity
71195;BME280;58908;51.426;7.714;2022-08-04T00:02:14;99572.59;;;19.55;86.81
71195;BME280;58908;51.426;7.714;2022-08-04T00:10:11;99570.78;;;19.46;87.48
71195;BME280;58908;51.426;7.714;2022-08-04T00:12:41;99566.44;;;19.45;87.37
71195;BME280;58908;51.426;7.714;2022-08-04T00:15:08;99568.38;;;19.43;87.78
71195;BME280;58908;51.426;7.714;2022-08-04T00:17:37;99568.31;;;19.35;87.95
71195;BME280;58908;51.426;7.714;2022-08-04T00:20:03;99569.56;;;19.31;88.28
71195;BME280;58908;51.426;7.714;2022-08-04T00:22:30;99566.19;;;19.29;88.43
71195;BME280;58908;51.426;7.714;2022-08-04T00:24:56;99566.94;;;19.22;88.48
71195;BME280;58908;51.426;7.714;2022-08-04T00:27:21;99566.69;;;19.06;89.24
71195;BME280;58908;51.426;7.714;2022-08-04T00:29:46;99572.09;;;18.68;91.22
71195;BME280;58908;51.426;7.714;2022-08-04T00:32:12;99567.59;;;18.78;90.78
71195;BME280;58908;51.426;7.714;2022-08-04T00:34:37;99565.88;;;18.86;90.09
71195;BME280;58908;51.426;7.714;2022-08-04T00:37:02;99567.00;;;18.93;89.98
71195;BME280;58908;51.426;7.714;2022-08-04T00:39:28;99571.78;;;18.90;90.06
71195;BME280;58908;51.426;7.714;2022-08-04T00:45:12;99560.53;;;18.86;90.61
71195;BME280;58908;51.426;7.714;2022-08-04T00:52:40;99568.44;;;18.78;90.58
71195;BME280;58908;51.426;7.714;2022-08-04T00:55:19;99552.53;;;18.77;90.17
71195;BME280;58908;51.426;7.714;2022-08-04T01:00:13;99556.63;;;18.71;90.51
71195;BME280;58908;51.426;7.714;2022-08-04T01:05:14;99547.63;;;18.53;90.98
71195;BME280;58908;51.426;7.714;2022-08-04T01:13:00;99543.13;;;18.63;90.28
71195;BME280;58908;51.426;7.714;2022-08-04T01:15:35;99528.94;;;18.63;90.12
71195;BME280;58908;51.426;7.714;2022-08-04T01:18:04;99540.75;;;18.60;89.58
71195;BME280;58908;51.426;7.714;2022-08-04T01:20:35;99538.78;;;18.62;89.20
71195;BME280;58908;51.426;7.714;2022-08-04T01:31:02;99541.63;;;18.42;91.07
71195;BME280;58908;51.426;7.714;2022-08-04T01:33:31;99537.09;;;18.42;91.56
71195;BME280;58908;51.426;7.714;2022-08-04T01:36:03;99535.81;;;18.27;92.00
71195;BME280;58908;51.426;7.714;2022-08-04T01:38:34;99530.09;;;18.22;92.18
71195;BME280;58908;51.426;7.714;2022-08-04T01:41:02;99526.00;;;18.28;92.09
71195;BME280;58908;51.426;7.714;2022-08-04T01:43:27;99530.09;;;18.32;91.91
71195;BME280;58908;51.426;7.714;2022-08-04T01:45:57;99526.72;;;18.30;92.09
71195;BME280;58908;51.426;7.714;2022-08-04T01:48:22;99523.19;;;18.29;92.34
71195;BME280;58908;51.426;7.714;2022-08-04T01:50:52;99524.28;;;18.27;92.35
71195;BME280;58908;51.426;7.714;2022-08-04T01:53:18;99522.09;;;18.32;91.76
71195;BME280;58908;51.426;7.714;2022-08-04T01:55:44;99522.75;;;18.24;92.48
71195;BME280;58908;51.426;7.714;2022-08-04T01:58:10;99516.84;;;18.21;92.02
71195;BME280;58908;51.426;7.714;2022-08-04T02:00:36;99510.97;;;18.08;92.04
71195;BME280;58908;51.426;7.714;2022-08-04T02:03:04;99507.59;;;18.06;92.51
71195;BME280;58908;51.426;7.714;2022-08-04T02:05:29;99515.75;;;18.33;91.49
71195;BME280;58908;51.426;7.714;2022-08-04T02:07:59;99497.75;;;18.25;92.04
71195;BME280;58908;51.426;7.714;2022-08-04T02:10:27;99494.63;;;18.20;91.88
71195;BME280;58908;51.426;7.714;2022-08-04T02:15:24;99498.03;;;18.13;92.62
71195;BME280;58908;51.426;7.714;2022-08-04T02:20:28;99491.72;;;18.04;92.92
71195;BME280;58908;51.426;7.714;2022-08-04T02:22:57;99481.28;;;17.92;93.01
71195;BME280;58908;51.426;7.714;2022-08-04T02:25:24;99493.78;;;17.82;93.82
71195;BME280;58908;51.426;7.714;2022-08-04T02:27:54;99488.31;;;17.74;94.70
71195;BME280;58908;51.426;7.714;2022-08-04T02:30:19;99481.03;;;17.76;94.43
71195;BME280;58908;51.426;7.714;2022-08-04T02:32:45;99482.28;;;17.72;94.03
71195;BME280;58908;51.426;7.714;2022-08-04T02:35:13;99483.97;;;17.73;94.32
71195;BME280;58908;51.426;7.714;2022-08-04T02:37:40;99479.34;;;17.75;93.85
71195;BME280;58908;51.426;7.714;2022-08-04T02:40:09;99480.91;;;17.77;94.46
71195;BME280;58908;51.426;7.714;2022-08-04T02:42:35;99469.06;;;17.70;94.51
71195;BME280;58908;51.426;7.714;2022-08-04T02:45:01;99472.44;;;17.63;94.56
71195;BME280;58908;51.426;7.714;2022-08-04T02:47:27;99476.22;;;17.60;94.98
71195;BME280;58908;51.426;7.714;2022-08-04T02:49:53;99474.16;;;17.83;93.96
71195;BME280;58908;51.426;7.714;2022-08-04T02:52:20;99466.44;;;17.89;92.43
71195;BME280;58908;51.426;7.714;2022-08-04T02:54:48;99460.38;;;17.87;93.19
71195;BME280;58908;51.426;7.714;2022-08-04T02:57:15;99461.91;;;17.90;92.22
71195;BME280;58908;51.426;7.714;2022-08-04T02:59:59;99457.97;;;17.94;92.62
71195;BME280;58908;51.426;7.714;2022-08-04T03:02:29;99452.25;;;17.79;92.22
71195;BME280;58908;51.426;7.714;2022-08-04T03:05:02;99455.75;;;17.70;93.40
71195;BME280;58908;51.426;7.714;2022-08-04T03:15:46;99456.41;;;17.44;95.71
71195;BME280;58908;51.426;7.714;2022-08-04T03:36:24;99440.13;;;17.47;95.99
71195;BME280;58908;51.426;7.714;2022-08-04T03:52:22;99437.59;;;17.45;95.24
71195;BME280;58908;51.426;7.714;2022-08-04T03:57:33;99447.25;;;17.37;95.20
71195;BME280;58908;51.426;7.714;2022-08-04T04:07:43;99433.75;;;17.29;96.33
71195;BME280;58908;51.426;7.714;2022-08-04T04:10:24;99428.69;;;17.26;96.53
71195;BME280;58908;51.426;7.714;2022-08-04T04:15:50;99431.34;;;17.26;96.64
71195;BME280;58908;51.426;7.714;2022-08-04T04:20:52;99430.28;;;17.38;96.16
71195;BME280;58908;51.426;7.714;2022-08-04T04:26:03;99434.38;;;17.42;96.20
71195;BME280;58908;51.426;7.714;2022-08-04T04:41:30;99427.09;;;17.72;95.14
71195;BME280;58908;51.426;7.714;2022-08-04T04:46:42;99425.97;;;17.84;95.62
71195;BME280;58908;51.426;7.714;2022-08-04T04:51:48;99425.81;;;17.95;94.85
71195;BME280;58908;51.426;7.714;2022-08-04T04:54:33;99420.47;;;17.95;93.29
71195;BME280;58908;51.426;7.714;2022-08-04T04:57:03;99423.84;;;17.97;93.06
71195;BME280;58908;51.426;7.714;2022-08-04T04:59:32;99424.84;;;17.96;92.93
71195;BME280;58908;51.426;7.714;2022-08-04T05:02:06;99429.88;;;17.99;94.59
71195;BME280;58908;51.426;7.714;2022-08-04T05:14:46;99428.91;;;18.29;93.64
71195;BME280;58908;51.426;7.714;2022-08-04T05:22:07;99427.00;;;18.58;92.08
71195;BME280;58908;51.426;7.714;2022-08-04T05:24:36;99425.69;;;18.71;91.16
71195;BME280;58908;51.426;7.714;2022-08-04T05:27:04;99425.38;;;18.84;92.70
71195;BME280;58908;51.426;7.714;2022-08-04T05:29:36;99426.00;;;18.95;90.04
71195;BME280;58908;51.426;7.714;2022-08-04T05:32:06;99424.22;;;19.13;89.05
71195;BME280;58908;51.426;7.714;2022-08-04T05:34:34;99421.72;;;19.39;88.21
71195;BME280;58908;51.426;7.714;2022-08-04T05:37:06;99429.81;;;19.47;88.14
71195;BME280;58908;51.426;7.714;2022-08-04T05:39:35;99430.44;;;19.41;88.45
71195;BME280;58908;51.426;7.714;2022-08-04T05:42:01;99427.91;;;19.39;88.63
71195;BME280;58908;51.426;7.714;2022-08-04T05:44:26;99431.81;;;19.45;89.01
71195;BME280;58908;51.426;7.714;2022-08-04T05:46:53;99427.47;;;19.61;88.09
71195;BME280;58908;51.426;7.714;2022-08-04T05:49:19;99425.03;;;19.67;87.79
71195;BME280;58908;51.426;7.714;2022-08-04T05:51:45;99426.34;;;19.81;87.23
71195;BME280;58908;51.426;7.714;2022-08-04T05:54:11;99426.00;;;20.01;86.64
71195;BME280;58908;51.426;7.714;2022-08-04T05:56:37;99429.31;;;20.13;86.35
71195;BME280;58908;51.426;7.714;2022-08-04T05:59:03;99423.53;;;20.25;85.86
71195;BME280;58908;51.426;7.714;2022-08-04T06:01:29;99431.25;;;20.46;84.54
71195;BME280;58908;51.426;7.714;2022-08-04T06:03:56;99431.88;;;20.65;83.62
71195;BME280;58908;51.426;7.714;2022-08-04T06:06:22;99422.91;;;20.82;82.55
71195;BME280;58908;51.426;7.714;2022-08-04T06:08:47;99429.75;;;21.02;80.98
71195;BME280;58908;51.426;7.714;2022-08-04T06:11:12;99426.22;;;21.43;77.81
71195;BME280;58908;51.426;7.714;2022-08-04T06:13:42;99423.75;;;21.66;80.90
71195;BME280;58908;51.426;7.714;2022-08-04T06:16:08;99424.63;;;21.82;78.61
71195;BME280;58908;51.426;7.714;2022-08-04T06:18:35;99426.16;;;21.93;79.04
71195;BME280;58908;51.426;7.714;2022-08-04T06:21:01;99432.19;;;21.95;78.75
71195;BME280;58908;51.426;7.714;2022-08-04T06:23:28;99417.44;;;22.14;78.71
71195;BME280;58908;51.426;7.714;2022-08-04T06:25:54;99413.03;;;22.37;75.62
71195;BME280;58908;51.426;7.714;2022-08-04T06:28:20;99414.09;;;22.99;73.03
71195;BME280;58908;51.426;7.714;2022-08-04T06:30:46;99419.31;;;24.74;67.20
71195;BME280;58908;51.426;7.714;2022-08-04T06:33:14;99410.28;;;25.74;62.85
71195;BME280;58908;51.426;7.714;2022-08-04T06:35:57;99414.59;;;26.53;60.12
71195;BME280;58908;51.426;7.714;2022-08-04T06:38:24;99415.66;;;26.86;59.50
71195;BME280;58908;51.426;7.714;2022-08-04T06:40:49;99413.66;;;27.35;56.05
71195;BME280;58908;51.426;7.714;2022-08-04T06:43:15;99408.72;;;27.45;56.79
71195;BME280;58908;51.426;7.714;2022-08-04T06:45:41;99411.16;;;27.93;54.99
71195;BME280;58908;51.426;7.714;2022-08-04T06:48:07;99412.06;;;28.58;52.41
71195;BME280;58908;51.426;7.714;2022-08-04T06:50:33;99412.00;;;28.13;54.64
71195;BME280;58908;51.426;7.714;2022-08-04T06:52:58;99416.09;;;29.32;51.53
71195;BME280;58908;51.426;7.714;2022-08-04T06:55:24;99410.28;;;29.16;51.70
71195;BME280;58908;51.426;7.714;2022-08-04T06:57:49;99408.69;;;28.82;52.75
71195;BME280;58908;51.426;7.714;2022-08-04T07:00:14;99413.09;;;29.47;52.64
71195;BME280;58908;51.426;7.714;2022-08-04T07:02:41;99411.97;;;30.11;51.31
71195;BME280;58908;51.426;7.714;2022-08-04T07:05:08;99411.69;;;29.82;51.40
71195;BME280;58908;51.426;7.714;2022-08-04T07:07:34;99410.88;;;29.81;51.02
71195;BME280;58908;51.426;7.714;2022-08-04T07:10:00;99405.97;;;30.27;50.18
71195;BME280;58908;51.426;7.714;2022-08-04T07:12:25;99396.50;;;31.39;44.83
71195;BME280;58908;51.426;7.714;2022-08-04T07:14:51;99402.16;;;32.14;43.81
71195;BME280;58908;51.426;7.714;2022-08-04T07:17:17;99404.91;;;32.14;43.53
71195;BME280;58908;51.426;7.714;2022-08-04T07:19:43;99401.75;;;33.55;39.99
71195;BME280;58908;51.426;7.714;2022-08-04T07:22:09;99399.72;;;33.50;39.41
71195;BME280;58908;51.426;7.714;2022-08-04T07:24:35;99404.91;;;33.75;37.65
71195;BME280;58908;51.426;7.714;2022-08-04T07:27:00;99399.09;;;34.16;34.19
71195;BME280;58908;51.426;7.714;2022-08-04T07:29:26;99394.19;;;35.60;31.08
71195;BME280;58908;51.426;7.714;2022-08-04T07:31:52;99389.38;;;34.86;31.56
71195;BME280;58908;51.426;7.714;2022-08-04T07:34:18;99382.28;;;34.90;30.40
71195;BME280;58908;51.426;7.714;2022-08-04T07:36:43;99391.47;;;35.81;30.74
71195;BME280;58908;51.426;7.714;2022-08-04T07:39:09;99392.31;;;35.60;28.62
71195;BME280;58908;51.426;7.714;2022-08-04T07:41:34;99391.94;;;35.14;29.38
71195;BME280;58908;51.426;7.714;2022-08-04T07:43:59;99393.91;;;34.97;28.95
71195;BME280;58908;51.426;7.714;2022-08-04T07:46:24;99395.09;;;34.84;32.94
71195;BME280;58908;51.426;7.714;2022-08-04T07:48:50;99393.34;;;34.95;30.26
71195;BME280;58908;51.426;7.714;2022-08-04T07:51:16;99393.34;;;35.16;29.91
71195;BME280;58908;51.426;7.714;2022-08-04T07:53:41;99397.88;;;35.91;29.95
71195;BME280;58908;51.426;7.714;2022-08-04T07:56:06;99395.00;;;35.77;30.43
71195;BME280;58908;51.426;7.714;2022-08-04T07:58:32;99394.66;;;35.73;28.89
71195;BME280;58908;51.426;7.714;2022-08-04T08:00:57;99395.47;;;34.93;30.44
71195;BME280;58908;51.426;7.714;2022-08-04T08:03:22;99394.50;;;34.66;29.21
71195;BME280;58908;51.426;7.714;2022-08-04T08:05:48;99396.28;;;34.72;30.88
71195;BME280;58908;51.426;7.714;2022-08-04T08:08:13;99393.63;;;34.98;29.81
71195;BME280;58908;51.426;7.714;2022-08-04T08:10:39;99390.53;;;35.71;28.22
71195;BME280;58908;51.426;7.714;2022-08-04T08:13:09;99398.31;;;35.36;28.40
71195;BME280;58908;51.426;7.714;2022-08-04T08:15:34;99392.38;;;35.44;28.10
71195;BME280;58908;51.426;7.714;2022-08-04T08:18:00;99403.28;;;36.08;28.01
71195;BME280;58908;51.426;7.714;2022-08-04T08:20:26;99400.56;;;35.39;31.36
71195;BME280;58908;51.426;7.714;2022-08-04T08:22:51;99399.06;;;35.31;29.00
71195;BME280;58908;51.426;7.714;2022-08-04T08:25:16;99400.03;;;35.04;29.43
71195;BME280;58908;51.426;7.714;2022-08-04T08:27:41;99402.13;;;35.35;29.64
71195;BME280;58908;51.426;7.714;2022-08-04T08:30:07;99401.28;;;34.96;29.43
71195;BME280;58908;51.426;7.714;2022-08-04T08:32:32;99395.84;;;35.77;27.05
71195;BME280;58908;51.426;7.714;2022-08-04T08:34:58;99393.03;;;35.98;27.89
71195;BME280;58908;51.426;7.714;2022-08-04T08:37:32;99397.28;;;35.20;30.37
71195;BME280;58908;51.426;7.714;2022-08-04T08:45:10;99398.34;;;36.36;26.82
71195;BME280;58908;51.426;7.714;2022-08-04T08:47:42;99402.81;;;37.05;27.11
71195;BME280;58908;51.426;7.714;2022-08-04T08:50:17;99399.41;;;37.45;25.27
71195;BME280;58908;51.426;7.714;2022-08-04T08:55:37;99403.91;;;37.61;24.37
71195;BME280;58908;51.426;7.714;2022-08-04T08:58:17;99407.28;;;37.88;26.08
71195;BME280;58908;51.426;7.714;2022-08-04T09:00:52;99399.75;;;37.58;25.38
71195;BME280;58908;51.426;7.714;2022-08-04T09:06:16;99401.56;;;37.94;25.43
71195;BME280;58908;51.426;7.714;2022-08-04T09:08:54;99399.84;;;37.83;27.08
71195;BME280;58908;51.426;7.714;2022-08-04T09:11:25;99394.72;;;38.22;25.16
71195;BME280;58908;51.426;7.714;2022-08-04T09:13:56;99389.75;;;38.34;25.24
71195;BME280;58908;51.426;7.714;2022-08-04T09:19:11;99390.28;;;38.01;25.05
71195;BME280;58908;51.426;7.714;2022-08-04T09:26:43;99389.25;;;38.57;22.79
71195;BME280;58908;51.426;7.714;2022-08-04T09:34:19;99381.63;;;35.85;25.74
71195;BME280;58908;51.426;7.714;2022-08-04T09:37:31;99387.84;;;36.96;26.27
71195;BME280;58908;51.426;7.714;2022-08-04T09:42:24;99382.22;;;37.84;24.09
71195;BME280;58908;51.426;7.714;2022-08-04T09:52:54;99380.28;;;37.85;24.11
71195;BME280;58908;51.426;7.714;2022-08-04T09:55:29;99378.38;;;37.90;23.41
71195;BME280;58908;51.426;7.714;2022-08-04T09:58:08;99375.16;;;37.37;26.22
71195;BME280;58908;51.426;7.714;2022-08-04T10:00:39;99376.22;;;38.02;25.58
71195;BME280;58908;51.426;7.714;2022-08-04T10:03:05;99378.88;;;37.67;23.92
71195;BME280;58908;51.426;7.714;2022-08-04T10:08:40;99370.22;;;38.40;24.27
71195;BME280;58908;51.426;7.714;2022-08-04T10:11:10;99367.41;;;38.25;23.58
71195;BME280;58908;51.426;7.714;2022-08-04T10:16:05;99366.84;;;37.32;24.36
71195;BME280;58908;51.426;7.714;2022-08-04T10:28:45;99369.53;;;36.39;25.22
71195;BME280;58908;51.426;7.714;2022-08-04T10:31:16;99372.28;;;36.39;23.75
71195;BME280;58908;51.426;7.714;2022-08-04T10:33:48;99355.53;;;35.61;26.04
71195;BME280;58908;51.426;7.714;2022-08-04T10:36:15;99373.09;;;35.17;27.98
71195;BME280;58908;51.426;7.714;2022-08-04T10:43:58;99366.47;;;35.83;25.85
71195;BME280;58908;51.426;7.714;2022-08-04T10:46:30;99366.19;;;35.79;25.59
71195;BME280;58908;51.426;7.714;2022-08-04T10:49:09;99363.38;;;36.00;25.39
71195;BME280;58908;51.426;7.714;2022-08-04T10:51:43;99362.97;;;36.13;24.02
71195;BME280;58908;51.426;7.714;2022-08-04T10:54:12;99364.41;;;36.21;23.39
71195;BME280;58908;51.426;7.714;2022-08-04T10:56:39;99367.19;;;35.68;24.12
71195;BME280;58908;51.426;7.714;2022-08-04T10:59:10;99368.88;;;36.00;24.23
71195;BME280;58908;51.426;7.714;2022-08-04T11:01:41;99366.00;;;35.21;24.53
71195;BME280;58908;51.426;7.714;2022-08-04T11:04:14;99363.22;;;34.45;24.23
71195;BME280;58908;51.426;7.714;2022-08-04T11:06:42;99369.50;;;35.17;24.78
71195;BME280;58908;51.426;7.714;2022-08-04T11:09:08;99361.56;;;34.61;24.03
71195;BME280;58908;51.426;7.714;2022-08-04T11:14:15;99366.13;;;35.10;24.06
71195;BME280;58908;51.426;7.714;2022-08-04T11:16:53;99375.38;;;34.87;25.36
71195;BME280;58908;51.426;7.714;2022-08-04T11:21:48;99381.97;;;35.24;24.42
71195;BME280;58908;51.426;7.714;2022-08-04T11:24:17;99381.41;;;35.91;23.77
71195;BME280;58908;51.426;7.714;2022-08-04T11:26:50;99380.63;;;35.70;23.39
71195;BME280;58908;51.426;7.714;2022-08-04T11:31:43;99381.13;;;35.24;19.93
71195;BME280;58908;51.426;7.714;2022-08-04T11:34:22;99380.47;;;34.79;21.60
71195;BME280;58908;51.426;7.714;2022-08-04T11:41:50;99383.97;;;34.41;23.40
71195;BME280;58908;51.426;7.714;2022-08-04T11:46:57;99389.19;;;34.43;26.93
71195;BME280;58908;51.426;7.714;2022-08-04T11:49:34;99388.06;;;34.11;27.58
71195;BME280;58908;51.426;7.714;2022-08-04T11:52:02;99391.81;;;34.05;26.03
71195;BME280;58908;51.426;7.714;2022-08-04T11:54:29;99389.56;;;34.18;27.74
71195;BME280;58908;51.426;7.714;2022-08-04T11:56:55;99396.34;;;34.60;25.57
71195;BME280;58908;51.426;7.714;2022-08-04T11:59:21;99387.44;;;34.53;25.19
71195;BME280;58908;51.426;7.714;2022-08-04T12:01:58;99398.66;;;34.68;26.42
71195;BME280;58908;51.426;7.714;2022-08-04T12:15:15;99400.97;;;34.60;25.43
71195;BME280;58908;51.426;7.714;2022-08-04T12:17:47;99412.34;;;35.18;24.88
71195;BME280;58908;51.426;7.714;2022-08-04T12:20:16;99411.47;;;34.18;27.23
71195;BME280;58908;51.426;7.714;2022-08-04T12:22:45;99400.88;;;34.22;27.84
71195;BME280;58908;51.426;7.714;2022-08-04T12:25:13;99392.16;;;34.58;27.38
71195;BME280;58908;51.426;7.714;2022-08-04T12:27:54;99402.25;;;34.08;29.34
71195;BME280;58908;51.426;7.714;2022-08-04T12:30:21;99408.66;;;33.46;31.48
71195;BME280;58908;51.426;7.714;2022-08-04T12:32:50;99414.41;;;33.44;31.57
71195;BME280;58908;51.426;7.714;2022-08-04T12:37:50;99401.91;;;33.37;32.78
71195;BME280;58908;51.426;7.714;2022-08-04T12:40:27;99413.81;;;33.70;32.09
71195;BME280;58908;51.426;7.714;2022-08-04T12:45:51;99410.03;;;33.60;30.39
71195;BME280;58908;51.426;7.714;2022-08-04T12:48:17;99406.28;;;33.38;30.65
71195;BME280;58908;51.426;7.714;2022-08-04T12:50:47;99397.88;;;33.16;31.62
71195;BME280;58908;51.426;7.714;2022-08-04T12:53:13;99405.13;;;33.11;32.25
71195;BME280;58908;51.426;7.714;2022-08-04T12:55:43;99412.31;;;33.01;32.29
71195;BME280;58908;51.426;7.714;2022-08-04T12:58:10;99412.53;;;32.88;32.03
71195;BME280;58908;51.426;7.714;2022-08-04T13:00:37;99408.38;;;32.85;32.54
71195;BME280;58908;51.426;7.714;2022-08-04T13:03:06;99417.63;;;32.61;33.61
71195;BME280;58908;51.426;7.714;2022-08-04T13:05:33;99413.31;;;32.42;33.31
71195;BME280;58908;51.426;7.714;2022-08-04T13:07:58;99392.66;;;32.35;33.28
71195;BME280;58908;51.426;7.714;2022-08-04T13:10:25;99391.00;;;32.34;34.31
71195;BME280;58908;51.426;7.714;2022-08-04T13:12:52;99389.53;;;32.31;35.13
71195;BME280;58908;51.426;7.714;2022-08-04T13:15:23;99393.22;;;32.48;35.50
71195;BME280;58908;51.426;7.714;2022-08-04T13:18:02;99399.59;;;32.72;35.16
71195;BME280;58908;51.426;7.714;2022-08-04T13:20:31;99386.81;;;32.43;34.74
71195;BME280;58908;51.426;7.714;2022-08-04T13:22:58;99388.81;;;32.24;34.82
71195;BME280;58908;51.426;7.714;2022-08-04T13:25:27;99386.09;;;32.24;35.66
71195;BME280;58908;51.426;7.714;2022-08-04T13:27:52;99385.78;;;32.14;35.90
71195;BME280;58908;51.426;7.714;2022-08-04T13:30:18;99387.44;;;32.04;35.47
71195;BME280;58908;51.426;7.714;2022-08-04T13:32:44;99393.59;;;31.99;35.90
71195;BME280;58908;51.426;7.714;2022-08-04T13:35:09;99393.69;;;31.93;36.62
71195;BME280;58908;51.426;7.714;2022-08-04T13:37:36;99400.59;;;31.48;37.35
71195;BME280;58908;51.426;7.714;2022-08-04T13:40:03;99412.47;;;31.35;38.03
71195;BME280;58908;51.426;7.714;2022-08-04T13:42:29;99411.50;;;31.12;38.46
71195;BME280;58908;51.426;7.714;2022-08-04T13:44:57;99406.47;;;31.09;38.32
71195;BME280;58908;51.426;7.714;2022-08-04T13:47:41;99411.41;;;31.00;38.93
71195;BME280;58908;51.426;7.714;2022-08-04T13:52:32;99412.78;;;31.09;38.95
71195;BME280;58908;51.426;7.714;2022-08-04T13:54:57;99410.44;;;31.13;37.55
71195;BME280;58908;51.426;7.714;2022-08-04T13:57:26;99404.97;;;31.31;37.65
71195;BME280;58908;51.426;7.714;2022-08-04T13:59:54;99410.34;;;31.37;37.50
71195;BME280;58908;51.426;7.714;2022-08-04T14:05:23;99407.56;;;31.44;39.09
71195;BME280;58908;51.426;7.714;2022-08-04T14:07:53;99407.72;;;31.31;40.25
71195;BME280;58908;51.426;7.714;2022-08-04T14:10:19;99402.66;;;31.34;40.04
71195;BME280;58908;51.426;7.714;2022-08-04T14:12:48;99411.28;;;31.13;40.93
71195;BME280;58908;51.426;7.714;2022-08-04T14:18:16;99413.56;;;31.16;40.74
71195;BME280;58908;51.426;7.714;2022-08-04T14:20:58;99408.56;;;31.13;41.50
71195;BME280;58908;51.426;7.714;2022-08-04T14:23:24;99415.78;;;31.01;41.70
71195;BME280;58908;51.426;7.714;2022-08-04T14:25:50;99407.50;;;31.14;41.42
71195;BME280;58908;51.426;7.714;2022-08-04T14:28:25;99406.72;;;31.07;42.33
71195;BME280;58908;51.426;7.714;2022-08-04T14:30:50;99406.88;;;30.94;43.14
71195;BME280;58908;51.426;7.714;2022-08-04T14:33:16;99405.91;;;30.82;43.67
71195;BME280;58908;51.426;7.714;2022-08-04T14:35:42;99407.28;;;30.73;44.43
71195;BME280;58908;51.426;7.714;2022-08-04T14:38:19;99407.66;;;30.77;43.87
71195;BME280;58908;51.426;7.714;2022-08-04T14:40:44;99407.00;;;30.57;43.94
71195;BME280;58908;51.426;7.714;2022-08-04T14:43:10;99407.72;;;30.70;44.04
71195;BME280;58908;51.426;7.714;2022-08-04T14:45:36;99409.69;;;30.63;43.25
71195;BME280;58908;51.426;7.714;2022-08-04T14:48:04;99404.78;;;30.72;43.70
71195;BME280;58908;51.426;7.714;2022-08-04T14:50:34;99411.94;;;30.66;43.96
71195;BME280;58908;51.426;7.714;2022-08-04T14:55:55;99401.53;;;30.57;43.58
71195;BME280;58908;51.426;7.714;2022-08-04T14:58:24;99409.38;;;30.23;44.56
71195;BME280;58908;51.426;7.714;2022-08-04T15:00:50;99411.38;;;29.72;45.90
71195;BME280;58908;51.426;7.714;2022-08-04T15:03:17;99405.50;;;29.99;46.07
71195;BME280;58908;51.426;7.714;2022-08-04T15:05:42;99407.31;;;30.18;45.75
71195;BME280;58908;51.426;7.714;2022-08-04T15:08:08;99403.00;;;30.35;45.57
71195;BME280;58908;51.426;7.714;2022-08-04T15:10:33;99405.81;;;30.22;46.19
71195;BME280;58908;51.426;7.714;2022-08-04T15:12:58;99406.13;;;30.32;46.28
71195;BME280;58908;51.426;7.714;2022-08-04T15:15:26;99393.16;;;30.34;46.36
71195;BME280;58908;51.426;7.714;2022-08-04T15:17:51;99398.88;;;30.26;46.22
71195;BME280;58908;51.426;7.714;2022-08-04T15:20:16;99397.25;;;30.19;45.93
71195;BME280;58908;51.426;7.714;2022-08-04T15:22:42;99400.13;;;30.23;46.88
71195;BME280;58908;51.426;7.714;2022-08-04T15:25:07;99409.75;;;30.26;46.70
71195;BME280;58908;51.426;7.714;2022-08-04T15:27:33;99401.41;;;30.21;45.69
71195;BME280;58908;51.426;7.714;2022-08-04T15:30:00;99397.53;;;30.11;45.72
71195;BME280;58908;51.426;7.714;2022-08-04T15:32:27;99398.25;;;29.93;45.81
71195;BME280;58908;51.426;7.714;2022-08-04T15:34:59;99399.50;;;29.91;46.83
71195;BME280;58908;51.426;7.714;2022-08-04T15:38:08;99388.91;;;29.76;45.92
71195;BME280;58908;51.426;7.714;2022-08-04T15:42:48;99396.53;;;29.61;47.60
71195;BME280;58908;51.426;7.714;2022-08-04T15:45:23;99380.84;;;29.63;47.69
71195;BME280;58908;51.426;7.714;2022-08-04T15:50:26;99396.34;;;29.63;47.14
71195;BME280;58908;51.426;7.714;2022-08-04T15:57:58;99394.84;;;29.67;48.64
71195;BME280;58908;51.426;7.714;2022-08-04T16:00:24;99398.44;;;29.54;48.05
71195;BME280;58908;51.426;7.714;2022-08-04T16:02:49;99394.72;;;29.49;47.74
71195;BME280;58908;51.426;7.714;2022-08-04T16:13:12;99405.69;;;29.23;49.09
71195;BME280;58908;51.426;7.714;2022-08-04T16:15:42;99406.28;;;29.25;48.27
71195;BME280;58908;51.426;7.714;2022-08-04T16:18:08;99408.59;;;29.28;48.37
71195;BME280;58908;51.426;7.714;2022-08-04T16:20:34;99406.31;;;29.18;49.64
71195;BME280;58908;51.426;7.714;2022-08-04T16:23:02;99409.66;;;29.20;49.53
71195;BME280;58908;51.426;7.714;2022-08-04T16:25:41;99407.34;;;29.24;49.32
71195;BME280;58908;51.426;7.714;2022-08-04T16:28:07;99403.59;;;29.18;50.06
71195;BME280;58908;51.426;7.714;2022-08-04T16:30:58;99401.09;;;29.10;49.64
71195;BME280;58908;51.426;7.714;2022-08-04T16:33:30;99405.28;;;29.13;49.26
71195;BME280;58908;51.426;7.714;2022-08-04T16:35:55;99396.50;;;29.17;49.47
71195;BME280;58908;51.426;7.714;2022-08-04T16:38:21;99404.19;;;29.27;50.03
71195;BME280;58908;51.426;7.714;2022-08-04T16:40:52;99405.84;;;29.34;50.29
71195;BME280;58908;51.426;7.714;2022-08-04T16:43:18;99402.28;;;29.34;49.46
71195;BME280;58908;51.426;7.714;2022-08-04T16:48:11;99409.84;;;29.32;50.10
71195;BME280;58908;51.426;7.714;2022-08-04T16:53:21;99406.97;;;29.07;49.65
71195;BME280;58908;51.426;7.714;2022-08-04T16:55:48;99406.38;;;29.05;50.30
71195;BME280;58908;51.426;7.714;2022-08-04T16:58:14;99409.94;;;28.93;51.02
71195;BME280;58908;51.426;7.714;2022-08-04T17:00:40;99410.78;;;28.80;51.15
71195;BME280;58908;51.426;7.714;2022-08-04T17:03:07;99411.00;;;28.66;52.15
71195;BME280;58908;51.426;7.714;2022-08-04T17:05:33;99413.53;;;28.67;51.17
71195;BME280;58908;51.426;7.714;2022-08-04T17:07:59;99413.94;;;28.58;51.91
71195;BME280;58908;51.426;7.714;2022-08-04T17:10:42;99406.03;;;28.50;52.10
71195;BME280;58908;51.426;7.714;2022-08-04T17:13:24;99408.53;;;28.38;52.95
71195;BME280;58908;51.426;7.714;2022-08-04T17:15:50;99408.94;;;28.35;52.15
71195;BME280;58908;51.426;7.714;2022-08-04T17:18:17;99410.34;;;28.25;53.72